Beaver County Airport
KBVI : now visible

Airfield :











YOU CAN JOIN US ON...

 
LOGIN :

Register | Disclaimer

   EN    FR    IT 

 









Legend :    VFR   Marginal VFR   IFR   Intensive IFR   Very Intensive IFR
Visi :
Ceiling :
>= 8 km
>= 3000ft
5 to 8 km
1000 to 3000 ft
1500m to 5 km
500 to 1000 ft
800 to 1500m
200 to 500 ft
< 800m
< 200 ft
Symbols :   Thunderstorms  Fog  Heavy snow  Heavy precipitations  Wind > 20 kt






- Airport Elevation : 1253 ft


KBVI - Beaver County

CURRENT METAR :
  • 081816Z AUTO 33009G16KT 10SM SCT044 20/07 A2970 RMK AO2 T02020066

EXPIRED METARs :
  • 081756Z AUTO 34004KT 10SM SCT037 SCT045 20/07 A2971 RMK AO2 T02010074
  • 081736Z AUTO 31007KT 10SM SCT035 19/08 A2971 RMK AO2 T01940083
  • 081715Z AUTO 30006KT 10SM SCT029 SCT035 BKN042 19/10 A2971 RMK AO2 T01910103
  • 081656Z AUTO 32008KT 290V350 10SM BKN027 OVC035 18/11 A2971 RMK AO2 T01830107
  • 081635Z AUTO 33004KT 10SM BKN025 OVC030 18/11 A2971 RMK AO2 T01800109
  • 081616Z AUTO 31008KT 10SM BKN024 OVC030 17/11 A2971 RMK AO2 T01720106
  • 081555Z AUTO 33007KT 10SM BKN024 BKN028 18/11 A2971 RMK AO2 T01750111
  • 081535Z AUTO 33006KT 10SM BKN020 17/11 A2971 RMK AO2 T01700108

TAF KBVI
Valid from the 08 at 18:00 until the 09 at 18:00 UTC


081733Z 0818/0918 30010KT P6SM FEW025
FM090000 14004KT P6SM FEW250
FM090700 19011KT 6SM -SHRA OVC035
FM091000 29013G21KT P6SM -SHRA BKN010
FM091500 29018G28KT P6SM VCSH BKN025



MET'MAP, your aeronautical weather chart ! - Copyright ORBIFLY December 2007 - Disclaimer

ORBIFLY MET'MAP TEAM :

Programming & Development : Alexandra Zaïnal
Concept & original design : Baudouin d'Aumeries
Assistance for programming : Marc-Olivier Méhu
Technical & hardware support : Manuel Goepfert

Contact : metmap@orbifly.com




SOURCES & CREDITS :

   NOAA       Earth
Advisory